This is the latest recevied weather packets stored in our database for station/object WW5JC. If no packets are shown the sender has not sent any weather packets the latest 10 day(s).
| Time | Temp. | Humidity | Pressure | Rain* | Wind** | Luminosity | Snow |
|---|---|---|---|---|---|---|---|
| 1787884051 | 28.89° C | 54% | 1016.7 hPa | 0 mm | - | 0 W/m² | - |
| 1787883747 | 28.89° C | 53% | 1016.7 hPa | 0 mm | - | 0 W/m² | - |
| 1787883443 | 28.89° C | 52% | 1016.6 hPa | 0 mm | - | 0 W/m² | - |
| 1787883141 | 28.89° C | 52% | 1016.5 hPa | 0 mm | - | 0 W/m² | - |
| 1787882837 | 28.89° C | 51% | 1016.5 hPa | 0 mm | - | 0 W/m² | - |
| 1787882534 | 29.44° C | 51% | 1016.4 hPa | 0 mm | - | 0 W/m² | - |
| 1787882229 | 29.44° C | 50% | 1016.3 hPa | 0 mm | - | 0 W/m² | - |
| 1787881624 | 29.44° C | 49% | 1016 hPa | 0 mm | - | 0 W/m² | - |
| 1787881320 | 29.44° C | 50% | 1016.1 hPa | 0 mm | - | 0 W/m² | - |
| 1787881015 | 29.44° C | 51% | 1016 hPa | 0 mm | - | 0 W/m² | - |
| 1787880710 | 30° C | 49% | 1015.9 hPa | 0 mm | - | 0 W/m² | - |
| 1787880408 | 29.44° C | 51% | 1016 hPa | 0 mm | - | 0 W/m² | - |
| 1787880103 | 30° C | 51% | 1015.9 hPa | 0 mm | - | 0 W/m² | - |
| 1787879797 | 30.56° C | 49% | 1015.7 hPa | 0 mm | - | 0 W/m² | - |
| 1787879493 | 30.56° C | 50% | 1015.6 hPa | 0 mm | - | 0 W/m² | - |
| 1787879189 | 31.11° C | 48% | 1015.6 hPa | 0 mm | - | 0 W/m² | - |
| 1787878886 | 31.11° C | 48% | 1015.6 hPa | 0 mm | - | 1 W/m² | - |
| 1787878585 | 31.11° C | 48% | 1015.7 hPa | 0 mm | - | 2 W/m² | - |
| 1787878279 | 31.67° C | 48% | 1015.4 hPa | 0 mm | - | 4 W/m² | - |
| 1787877975 | 31.67° C | 47% | 1015.4 hPa | 0 mm | - | 5 W/m² | - |
| 1787877671 | 32.22° C | 46% | 1015.3 hPa | 0 mm | - | 8 W/m² | - |
| 1787877366 | 32.22° C | 45% | 1015.4 hPa | 0 mm | - | 12 W/m² | - |
| 1787877062 | 32.78° C | 44% | 1015.2 hPa | 0 mm | - | 16 W/m² | - |
| 1787876757 | 32.78° C | 43% | 1015.2 hPa | 0 mm | - | 20 W/m² | - |
| 1787876456 | 32.78° C | 42% | 1015.1 hPa | 0 mm | - | 24 W/m² | - |
* Rain latest hour (hover to see other rain measurements)
** Current wind speed in m/s (hover to see current wind gust speed)